Time;durP1;ratioP1;P1;durP2;ratioP2;P2;SDS_P1;SDS_P2;PMS_P1;PMS_P2;Temp;Humidity;BMP_temperature;BMP_pressure;BME280_temperature;BME280_humidity;BME280_pressure;Samples;Min_cycle;Max_cycle;Signal;HPM_P1;HPM_P2
2022/02/08 00:03:44;;;;;;;11.17;2.93;;;;;;;6.84;50.42;99146.13;8350787;28;20224;-65
2022/02/08 00:07:51;;;;;;;11.60;3.13;;;;;;;6.77;50.34;99139.34;8351738;28;20274;-67
2022/02/08 00:11:54;;;;;;;11.23;3.23;;;;;;;6.40;51.43;99153.41;8351871;28;20239;-65
2022/02/08 00:15:57;;;;;;;10.27;3.23;;;;;;;6.30;51.96;99162.03;8351234;28;20228;-65
2022/02/08 00:20:00;;;;;;;11.77;3.30;;;;;;;6.32;51.77;99162.91;8351640;28;20504;-64
2022/02/08 00:24:05;;;;;;;9.60;3.03;;;;;;;6.61;51.03;99162.66;8351146;28;20267;-65
2022/02/08 00:28:08;;;;;;;14.37;3.07;;;;;;;6.86;50.14;99167.56;8351294;28;20247;-65
2022/02/08 00:32:11;;;;;;;11.17;3.43;;;;;;;6.89;50.23;99166.69;8351108;28;20232;-65
2022/02/08 00:36:14;;;;;;;12.10;2.80;;;;;;;6.61;50.65;99179.81;8351067;28;20243;-65
2022/02/08 00:40:20;;;;;;;13.20;3.37;;;;;;;6.43;50.88;99178.25;8350527;28;20243;-65
2022/02/08 00:44:31;;;;;;;12.80;3.37;;;;;;;6.43;50.93;99180.81;8350515;28;20243;-65
2022/02/08 00:48:40;;;;;;;9.43;3.10;;;;;;;6.40;51.51;99168.84;8345194;28;20235;-65
2022/02/08 00:52:43;;;;;;;11.73;3.40;;;;;;;6.48;51.10;99171.34;8350394;28;20239;-65
2022/02/08 00:56:48;;;;;;;9.10;3.23;;;;;;;6.75;50.42;99159.09;8350407;28;20235;-65
2022/02/08 01:00:51;;;;;;;10.00;3.07;;;;;;;6.84;50.10;99171.88;8350282;28;20248;-65
2022/02/08 01:04:57;;;;;;;8.57;2.73;;;;;;;6.94;49.87;99170.06;8350274;28;20228;-65
2022/02/08 01:09:10;;;;;;;9.63;3.03;;;;;;;6.75;49.96;99170.25;8350130;28;20231;-64
2022/02/08 01:13:15;;;;;;;8.40;3.00;;;;;;;6.69;49.89;99175.44;8349889;28;20370;-64
2022/02/08 01:17:20;;;;;;;9.70;3.33;;;;;;;6.43;51.52;99173.09;8349448;28;20255;-65
2022/02/08 01:21:23;;;;;;;14.37;3.33;;;;;;;6.54;50.40;99173.88;8349529;28;20228;-65
2022/02/08 01:25:30;;;;;;;10.30;3.03;;;;;;;7.11;49.50;99177.63;8349494;28;20235;-65
2022/02/08 01:29:40;;;;;;;7.73;3.13;;;;;;;7.10;49.30;99181.03;8348651;28;20231;-65
2022/02/08 01:38:12;;;;;;;10.17;2.87;;;;;;;7.16;49.09;99174.13;8348520;28;20445;-65
2022/02/08 01:42:26;;;;;;;10.23;3.20;;;;;;;6.68;50.21;99181.44;8348831;28;20243;-65
2022/02/08 01:46:36;;;;;;;14.67;3.03;;;;;;;6.95;49.85;99164.03;8350824;28;20216;-64
2022/02/08 01:50:40;;;;;;;12.27;3.40;;;;;;;6.91;50.15;99168.38;8350548;28;20222;-65
2022/02/08 01:54:43;;;;;;;9.67;3.23;;;;;;;7.03;49.91;99159.66;8350640;28;20196;-64
2022/02/08 01:58:46;;;;;;;10.50;3.33;;;;;;;7.07;49.73;99158.75;8349128;28;20243;-65
2022/02/08 02:02:50;;;;;;;10.93;2.97;;;;;;;6.43;51.17;99157.66;8348108;28;20239;-65
2022/02/08 02:06:53;;;;;;;12.47;3.30;;;;;;;6.72;50.83;99151.38;8347527;28;20236;-64
2022/02/08 02:10:56;;;;;;;12.13;3.53;;;;;;;6.97;49.74;99142.56;8348197;28;20231;-65
2022/02/08 02:15:03;;;;;;;10.97;3.10;;;;;;;6.95;49.93;99140.84;8347945;28;20235;-64
2022/02/08 02:19:07;;;;;;;12.47;3.13;;;;;;;7.02;49.98;99142.50;8347827;28;20243;-65
2022/02/08 02:23:10;;;;;;;9.77;2.90;;;;;;;7.05;49.93;99140.75;8347649;28;20240;-66
2022/02/08 02:27:15;;;;;;;10.33;3.57;;;;;;;7.30;49.45;99147.34;8348025;28;20228;-65
2022/02/08 02:31:20;;;;;;;8.33;2.80;;;;;;;7.02;49.96;99151.06;8347845;28;20236;-65
2022/02/08 02:35:23;;;;;;;8.03;2.60;;;;;;;7.13;49.36;99152.69;8347576;28;20570;-65
2022/02/08 02:39:33;;;;;;;9.13;2.83;;;;;;;7.12;49.79;99143.25;8347121;28;20251;-65
2022/02/08 02:43:37;;;;;;;13.93;3.50;;;;;;;6.90;49.95;99143.47;8347053;28;20236;-66
2022/02/08 02:47:40;;;;;;;12.77;3.70;;;;;;;6.96;50.01;99135.69;8347650;28;20247;-65
2022/02/08 02:51:43;;;;;;;9.43;2.83;;;;;;;7.21;49.64;99137.97;8346993;28;20227;-65
2022/02/08 02:55:47;;;;;;;11.40;3.40;;;;;;;6.62;50.47;99140.34;8347646;28;20224;-65
2022/02/08 03:00:00;;;;;;;8.07;2.90;;;;;;;6.71;50.58;99136.81;8347042;28;20235;-65
2022/02/08 03:04:23;;;;;;;13.00;3.13;;;;;;;6.50;51.01;99136.16;8347258;28;20235;-65
2022/02/08 03:17:36;;;;;;;10.13;3.23;;;;;;;6.97;49.77;99123.69;8349071;28;20258;-65
2022/02/08 03:21:39;;;;;;;8.67;2.80;;;;;;;7.18;49.39;99132.88;8352754;28;20243;-65
2022/02/08 03:25:42;;;;;;;11.20;2.90;;;;;;;7.00;49.58;99132.19;8353238;28;20236;-65
2022/02/08 03:29:45;;;;;;;10.27;3.23;;;;;;;7.03;49.93;99142.47;8353304;28;20507;-65
2022/02/08 03:33:49;;;;;;;11.03;2.90;;;;;;;7.09;49.59;99143.28;8353273;28;20561;-65
2022/02/08 03:37:59;;;;;;;13.83;3.20;;;;;;;6.52;50.93;99151.59;8352941;28;20406;-65
2022/02/08 03:42:08;;;;;;;12.37;3.00;;;;;;;6.63;50.77;99147.19;8353121;28;20412;-65
2022/02/08 03:46:15;;;;;;;9.93;3.03;;;;;;;6.65;50.63;99151.47;8352852;28;20240;-65
2022/02/08 03:50:21;;;;;;;10.97;2.80;;;;;;;7.17;49.49;99157.78;8352967;28;20240;-65
2022/02/08 03:54:24;;;;;;;12.10;3.10;;;;;;;7.26;49.25;99154.25;8353215;28;20251;-64
2022/02/08 03:58:27;;;;;;;11.23;3.30;;;;;;;7.22;49.35;99161.16;8352631;28;20232;-65
2022/02/08 04:02:39;;;;;;;9.97;3.30;;;;;;;7.29;49.10;99164.53;8352151;28;20239;-65
2022/02/08 04:06:46;;;;;;;12.40;3.13;;;;;;;7.28;49.25;99165.38;8352334;28;20566;-65
2022/02/08 04:10:50;;;;;;;11.43;3.23;;;;;;;7.36;48.94;99163.56;8351844;28;20239;-65
2022/02/08 04:15:07;;;;;;;13.83;3.63;;;;;;;7.34;48.96;99167.88;8352103;28;20228;-65
2022/02/08 04:19:18;;;;;;;11.23;3.20;;;;;;;6.89;50.27;99174.41;8352196;28;20240;-64
2022/02/08 04:32:23;;;;;;;14.67;3.87;;;;;;;6.94;50.11;99177.78;8351178;28;20535;-65
2022/02/08 04:36:57;;;;;;;9.50;3.03;;;;;;;7.03;49.71;99172.53;8351076;28;20232;-64
2022/02/08 04:41:02;;;;;;;13.10;3.50;;;;;;;7.07;49.77;99175.94;8350713;28;20236;-64
2022/02/08 04:45:13;;;;;;;9.03;2.93;;;;;;;6.96;49.84;99176.03;8350808;28;20247;-64
2022/02/08 04:49:17;;;;;;;13.90;4.53;;;;;;;7.07;49.79;99189.66;8350725;28;20240;-64
2022/02/08 04:53:31;;;;;;;16.27;3.70;;;;;;;7.15;50.19;99187.00;8350736;28;20546;-64
2022/02/08 04:57:43;;;;;;;11.13;3.87;;;;;;;7.12;50.00;99175.03;8350132;28;20233;-65
2022/02/08 05:02:07;;;;;;;9.60;3.50;;;;;;;7.12;50.16;99171.56;8350209;28;20236;-64
2022/02/08 05:37:17;;;;;;;12.83;3.00;;;;;;;7.71;48.99;99146.81;8349266;28;20223;-65
2022/02/08 05:45:47;;;;;;;12.33;3.20;;;;;;;7.10;50.32;99145.84;8348381;28;20232;-65
2022/02/08 05:50:04;;;;;;;13.17;3.33;;;;;;;7.39;49.70;99144.66;8348659;28;20236;-65
2022/02/08 05:54:12;;;;;;;11.83;3.13;;;;;;;7.67;49.49;99142.53;8348861;28;20561;-65
2022/02/08 05:58:14;;;;;;;10.27;3.33;;;;;;;7.50;49.65;99134.19;8348436;28;20240;-65
2022/02/08 06:02:19;;;;;;;13.90;3.73;;;;;;;7.38;49.80;99130.88;8347329;28;20582;-64
2022/02/08 06:06:25;;;;;;;11.90;3.47;;;;;;;7.60;49.70;99128.03;8345047;28;20232;-65
2022/02/08 06:10:29;;;;;;;12.70;3.53;;;;;;;7.63;50.38;99133.16;8348108;28;20573;-65
2022/02/08 06:14:35;;;;;;;12.00;3.40;;;;;;;7.57;50.62;99139.22;8347206;28;20228;-64
2022/02/08 06:18:38;;;;;;;9.67;3.43;;;;;;;7.39;51.82;99139.50;8348072;28;20539;-65
2022/02/08 06:22:44;;;;;;;12.67;3.90;;;;;;;7.51;51.75;99143.63;8347597;28;20252;-65
2022/02/08 06:26:47;;;;;;;11.97;3.17;;;;;;;7.47;52.29;99152.28;8347646;28;20231;-65
2022/02/08 06:30:51;;;;;;;13.87;3.73;;;;;;;7.42;52.06;99153.19;8347667;28;20236;-65
2022/02/08 06:34:56;;;;;;;14.33;3.80;;;;;;;7.41;52.65;99153.22;8347319;28;20224;-65
2022/02/08 06:39:01;;;;;;;12.50;3.90;;;;;;;7.41;53.53;99154.06;8347352;28;20243;-64
2022/02/08 06:43:05;;;;;;;12.93;3.77;;;;;;;6.99;55.61;99163.16;8347969;28;20234;-65
2022/02/08 06:47:08;;;;;;;12.80;4.00;;;;;;;7.12;55.43;99163.84;8347515;28;20236;-64
2022/02/08 06:51:11;;;;;;;12.60;3.90;;;;;;;7.49;55.58;99166.00;8348289;28;20535;-64
2022/02/08 06:55:18;;;;;;;12.70;4.30;;;;;;;7.36;56.80;99162.72;8354458;28;20231;-64
2022/02/08 06:59:21;;;;;;;12.93;3.50;;;;;;;7.43;56.92;99159.19;8354475;28;20528;-64
2022/02/08 07:03:24;;;;;;;17.73;4.50;;;;;;;7.12;58.15;99159.56;8354210;28;20239;-64
2022/02/08 07:07:27;;;;;;;15.60;4.07;;;;;;;7.30;57.94;99168.78;8354214;28;20422;-64
2022/02/08 07:11:31;;;;;;;12.67;4.17;;;;;;;7.14;58.40;99173.28;8353969;28;20236;-64
2022/02/08 07:15:35;;;;;;;12.30;3.70;;;;;;;6.69;60.21;99184.91;8353602;28;20228;-72
2022/02/08 07:19:38;;;;;;;13.63;3.67;;;;;;;6.95;59.64;99177.78;8353479;28;20231;-64
2022/02/08 07:23:41;;;;;;;10.40;3.80;;;;;;;7.11;59.47;99181.03;8353425;28;20609;-64
2022/02/08 07:27:46;;;;;;;11.20;3.43;;;;;;;6.96;59.66;99176.91;8353652;28;20228;-64
2022/02/08 07:31:52;;;;;;;14.37;4.10;;;;;;;7.08;59.84;99180.22;8353427;28;20240;-64
2022/02/08 07:36:02;;;;;;;12.57;3.50;;;;;;;7.25;59.26;99178.28;8352691;28;20235;-64
2022/02/08 07:40:15;;;;;;;12.33;2.60;;;;;;;8.15;67.80;99173.66;8352220;28;20574;-64
2022/02/08 07:44:20;;;;;;;14.70;4.00;;;;;;;7.65;58.47;99172.66;8352520;28;20423;-65
2022/02/08 07:48:23;;;;;;;10.23;3.20;;;;;;;7.63;58.73;99159.81;8352120;28;20224;-64
2022/02/08 07:52:26;;;;;;;11.77;3.57;;;;;;;7.74;58.49;99167.38;8352350;28;20247;-64
2022/02/08 07:56:29;;;;;;;14.90;3.90;;;;;;;7.68;58.59;99164.88;8352190;28;20239;-64
2022/02/08 08:00:33;;;;;;;15.23;4.00;;;;;;;7.81;58.16;99156.09;8351630;28;20228;-65
2022/02/08 08:04:36;;;;;;;11.30;3.30;;;;;;;7.35;59.87;99167.03;8350944;28;20535;-65
2022/02/08 08:08:40;;;;;;;10.30;3.13;;;;;;;7.70;59.45;99163.13;8352046;28;20236;-65
2022/02/08 08:12:48;;;;;;;12.07;3.60;;;;;;;7.93;59.27;99162.81;8351995;28;20240;-65
2022/02/08 08:16:57;;;;;;;10.13;2.97;;;;;;;7.44;61.03;99158.31;8351835;28;20236;-64
2022/02/08 08:21:00;;;;;;;11.87;3.20;;;;;;;7.41;61.62;99158.38;8352031;28;20232;-64
2022/02/08 08:25:03;;;;;;;8.67;3.00;;;;;;;7.35;62.31;99158.41;8351474;28;20236;-64
2022/02/08 08:29:08;;;;;;;8.47;2.63;;;;;;;7.37;62.01;99144.66;8351792;28;20518;-65
2022/02/08 08:33:12;;;;;;;7.27;2.90;;;;;;;7.25;63.28;99144.81;8351717;28;20238;-64
2022/02/08 08:37:40;;;;;;;7.33;2.47;;;;;;;7.21;63.69;99148.28;8351085;28;20232;-65
2022/02/08 08:41:48;;;;;;;6.23;2.20;;;;;;;7.04;64.32;99157.09;8351168;28;20535;-65
2022/02/08 08:50:18;;;;;;;5.63;2.37;;;;;;;7.79;62.27;99169.91;8350979;28;20256;-64
2022/02/08 08:54:23;;;;;;;7.30;2.00;;;;;;;7.43;62.56;99166.94;8351371;28;20338;-64
2022/02/08 08:58:28;;;;;;;4.70;1.90;;;;;;;7.34;63.29;99157.56;8350901;28;20236;-64
2022/02/08 09:02:31;;;;;;;6.77;2.30;;;;;;;7.26;64.32;99171.44;8341728;28;20258;-66
2022/02/08 09:06:36;;;;;;;4.73;1.80;;;;;;;7.32;64.32;99185.09;8350235;28;20243;-64
2022/02/08 09:10:48;;;;;;;5.97;2.03;;;;;;;7.39;64.06;99184.16;8349973;28;20246;-65
2022/02/08 09:15:15;;;;;;;5.17;1.90;;;;;;;7.42;64.68;99186.72;8349575;28;20562;-64
2022/02/08 09:24:13;;;;;;;3.83;1.83;;;;;;;7.75;63.32;99187.13;8338798;28;20323;-64
2022/02/08 09:28:23;;;;;;;4.03;1.83;;;;;;;7.80;63.14;99181.91;8349486;28;20236;-64
2022/02/08 09:32:39;;;;;;;4.77;1.60;;;;;;;7.85;63.46;99176.72;8349301;28;20246;-64
2022/02/08 09:36:42;;;;;;;6.60;2.20;;;;;;;7.77;63.32;99175.06;8348934;28;20228;-64
2022/02/08 09:40:47;;;;;;;6.57;2.30;;;;;;;7.94;63.08;99176.53;8348713;28;20236;-64
2022/02/08 09:44:50;;;;;;;5.10;2.33;;;;;;;7.82;63.85;99182.75;8348540;28;20232;-64
2022/02/08 09:48:56;;;;;;;6.97;2.70;;;;;;;7.82;63.77;99175.00;8348143;28;20238;-64
2022/02/08 09:53:01;;;;;;;7.87;2.50;;;;;;;7.71;64.07;99180.31;8348684;28;20243;-64
2022/02/08 09:57:06;;;;;;;6.63;2.40;;;;;;;7.69;63.86;99181.19;8348491;28;20247;-64
2022/02/08 10:01:10;;;;;;;6.63;3.30;;;;;;;7.73;63.98;99190.59;8348124;28;20270;-64
2022/02/08 10:05:14;;;;;;;10.13;5.27;;;;;;;7.79;64.08;99170.75;8348082;28;20236;-65
2022/02/08 10:09:17;;;;;;;11.07;5.10;;;;;;;7.74;63.90;99175.09;8348118;28;20236;-64
2022/02/08 10:13:46;;;;;;;15.33;11.43;;;;;;;7.83;63.83;99164.66;8348341;28;20240;-64
2022/02/08 10:22:16;;;;;;;15.53;9.03;;;;;;;8.08;63.27;99163.47;8347899;28;20244;-64
2022/02/08 10:26:26;;;;;;;13.43;4.20;;;;;;;7.68;63.97;99166.63;8347664;28;20556;-64
2022/02/08 10:39:17;;;;;;;12.73;3.20;;;;;;;7.99;63.30;99178.19;8347511;28;20243;-64
2022/02/08 10:43:20;;;;;;;10.37;3.23;;;;;;;8.18;62.72;99183.94;8347184;28;20258;-64
2022/02/08 10:47:36;;;;;;;11.50;3.30;;;;;;;7.87;64.61;99174.94;8347448;28;20303;-64
2022/02/08 10:51:45;;;;;;;10.73;2.90;;;;;;;7.87;64.81;99170.63;8346869;28;20224;-64
2022/02/08 10:55:57;;;;;;;9.60;3.07;;;;;;;7.78;65.71;99173.34;8347634;28;20240;-64
2022/02/08 11:00:04;;;;;;;11.67;3.10;;;;;;;7.82;66.09;99173.28;8347205;28;20235;-64
2022/02/08 11:04:16;;;;;;;9.30;2.57;;;;;;;8.29;64.47;99172.59;8347028;28;20236;-64
2022/02/08 11:08:40;;;;;;;11.83;3.27;;;;;;;8.45;64.42;99174.06;8347045;28;20234;-64
2022/02/08 11:12:50;;;;;;;9.07;2.63;;;;;;;8.29;64.83;99170.88;8346776;28;20232;-64
2022/02/08 11:21:25;;;;;;;10.87;3.00;;;;;;;8.43;64.69;99170.66;8346929;28;20240;-64
2022/02/08 11:25:31;;;;;;;10.97;2.70;;;;;;;8.43;64.76;99177.56;8346885;28;20408;-64
2022/02/08 11:29:39;;;;;;;9.03;2.70;;;;;;;8.22;65.23;99171.84;8346425;28;20220;-64
2022/02/08 11:33:55;;;;;;;9.93;2.50;;;;;;;8.51;64.90;99171.41;8346594;28;20236;-64
2022/02/08 11:47:12;;;;;;;9.53;2.93;;;;;;;8.17;65.36;99159.00;8349956;28;20224;-64
2022/02/08 12:00:35;;;;;;;7.53;2.80;;;;;;;8.62;64.61;99160.88;8351888;28;20393;-64
2022/02/08 12:04:52;;;;;;;8.33;3.07;;;;;;;8.60;64.61;99167.81;8349053;28;20283;-64
2022/02/08 12:08:59;;;;;;;14.03;3.17;;;;;;;8.91;64.58;99149.16;8349684;28;20412;-64
2022/02/08 12:35:24;;;;;;;8.07;2.37;;;;;;;9.25;63.31;99154.53;8349857;28;20262;-64
2022/02/08 12:40:01;;;;;;;10.37;2.40;;;;;;;9.11;63.66;99161.72;8349732;28;20224;-64
2022/02/08 12:57:37;;;;;;;7.40;2.70;;;;;;;9.24;62.19;99167.50;8376518;27;20557;-62
2022/02/08 13:02:06;;;;;;;6.80;2.27;;;;;;;9.32;61.99;99166.47;8375141;28;20219;-63
2022/02/08 13:06:33;;;;;;;8.80;2.50;;;;;;;9.22;61.86;99157.19;8374725;28;20227;-62
2022/02/08 14:07:50;;;;;;;5.80;2.10;;;;;;;8.98;62.77;99127.50;8357263;28;20401;-62
2022/02/08 14:12:25;;;;;;;5.33;1.70;;;;;;;9.12;62.71;99133.28;8352083;28;20235;-63
2022/02/08 14:16:48;;;;;;;6.93;2.10;;;;;;;9.55;61.17;99134.13;8351985;28;20236;-63
2022/02/08 14:21:08;;;;;;;7.27;2.40;;;;;;;9.46;61.38;99140.34;8351237;28;20447;-62
2022/02/08 14:25:22;;;;;;;7.03;2.57;;;;;;;9.63;60.79;99146.88;8351633;28;20227;-62
2022/02/08 14:29:47;;;;;;;6.70;2.13;;;;;;;9.61;60.34;99149.50;8351688;28;20330;-63
2022/02/08 14:34:11;;;;;;;6.13;2.10;;;;;;;9.56;60.87;99147.00;8351038;28;20220;-63
2022/02/08 15:05:25;;;;;;;7.47;2.63;;;;;;;9.70;61.23;99146.72;8317608;28;20233;-64
2022/02/08 15:09:33;;;;;;;15.67;10.27;;;;;;;9.90;60.05;99142.81;8317953;28;20256;-63
2022/02/08 15:13:44;;;;;;;19.50;11.60;;;;;;;9.58;60.89;99150.41;8317297;28;20235;-65
2022/02/08 15:17:48;;;;;;;8.27;3.20;;;;;;;9.44;61.56;99151.59;8316905;28;20260;-63
2022/02/08 15:21:51;;;;;;;6.90;2.50;;;;;;;9.82;60.96;99150.75;8317015;28;20241;-63
2022/02/08 15:25:58;;;;;;;9.77;2.80;;;;;;;9.93;60.78;99158.28;8316704;28;20228;-63
2022/02/08 15:30:02;;;;;;;5.87;2.10;;;;;;;10.04;60.32;99150.28;8316909;28;20291;-62
2022/02/08 15:34:06;;;;;;;5.50;1.90;;;;;;;9.92;60.81;99154.84;8316710;28;20235;-62
2022/02/08 15:38:09;;;;;;;15.93;3.17;;;;;;;9.82;61.33;99150.75;8340724;28;20230;-62
2022/02/08 15:42:13;;;;;;;7.80;2.63;;;;;;;9.91;60.80;99154.88;8345398;28;20232;-62
2022/02/08 15:46:20;;;;;;;4.23;2.03;;;;;;;9.95;61.00;99152.19;8349046;28;20247;-63
2022/02/08 15:50:31;;;;;;;7.40;2.20;;;;;;;9.97;60.54;99154.75;8347982;28;20228;-62
2022/02/08 15:54:38;;;;;;;7.60;2.40;;;;;;;9.51;61.79;99160.94;8344754;28;20544;-63
2022/02/08 16:07:28;;;;;;;6.20;2.67;;;;;;;9.91;61.31;99162.66;8346102;28;20228;-62
2022/02/08 16:16:11;;;;;;;15.90;9.87;;;;;;;9.97;61.24;99162.50;8346619;28;20228;-62
2022/02/08 16:20:30;;;;;;;22.07;11.60;;;;;;;9.39;62.80;99159.44;8344944;28;20543;-63
2022/02/08 16:24:47;;;;;;;15.77;9.33;;;;;;;9.67;62.02;99157.13;8346806;28;20244;-62
2022/02/08 16:29:01;;;;;;;10.83;5.60;;;;;;;9.77;61.63;99160.38;8346544;28;20232;-62
2022/02/08 16:33:25;;;;;;;13.33;7.57;;;;;;;10.02;60.66;99168.44;8347682;28;20239;-62
2022/02/08 16:46:36;;;;;;;5.23;2.73;;;;;;;9.43;62.66;99173.16;8344515;28;20247;-62
2022/02/08 16:55:15;;;;;;;4.03;1.87;;;;;;;9.82;61.55;99181.81;8345696;28;20231;-62
2022/02/08 16:59:25;;;;;;;5.07;2.17;;;;;;;9.85;61.04;99179.16;8345429;28;20228;-62
2022/02/08 17:03:31;;;;;;;4.93;2.23;;;;;;;9.89;61.04;99183.38;8343216;28;20224;-63
2022/02/08 17:07:39;;;;;;;3.23;1.80;;;;;;;9.90;61.11;99179.91;8346043;28;20630;-63
2022/02/08 17:11:47;;;;;;;3.47;1.60;;;;;;;9.88;60.83;99175.63;8346781;28;20422;-62
2022/02/08 17:15:58;;;;;;;6.20;2.80;;;;;;;9.98;60.80;99177.16;8344060;28;20238;-63
2022/02/08 17:46:11;;;;;;;5.63;2.60;;;;;;;9.88;60.91;99197.22;8353096;28;20425;-62
2022/02/08 17:50:18;;;;;;;6.70;2.53;;;;;;;9.77;61.02;99205.19;8352771;28;20224;-62
2022/02/08 17:54:21;;;;;;;7.57;2.70;;;;;;;9.91;60.81;99202.31;8352603;28;20527;-62
2022/02/08 17:58:24;;;;;;;4.97;2.50;;;;;;;9.95;60.99;99203.09;8352533;28;20228;-62
2022/02/08 18:02:27;;;;;;;6.63;2.57;;;;;;;10.04;60.59;99209.81;8352588;28;20424;-62
2022/02/08 18:06:34;;;;;;;6.63;3.03;;;;;;;10.03;60.18;99206.34;8352670;28;20247;-63
2022/02/08 18:10:37;;;;;;;5.77;3.00;;;;;;;9.99;60.72;99215.06;8352351;28;20236;-62
2022/02/08 18:14:43;;;;;;;8.03;4.30;;;;;;;10.07;60.54;99213.19;8351566;28;20232;-62
2022/02/08 18:18:46;;;;;;;8.47;3.80;;;;;;;10.04;60.40;99215.84;8351861;28;20295;-62
2022/02/08 18:23:07;;;;;;;8.33;3.20;;;;;;;10.03;60.59;99213.28;8351925;28;20239;-62
2022/02/08 18:58:04;;;;;;;7.63;3.40;;;;;;;10.16;59.75;99223.31;8350214;28;20551;-62
2022/02/08 19:15:24;;;;;;;12.00;6.10;;;;;;;10.70;58.81;99236.75;8350179;28;20258;-63
2022/02/08 19:19:46;;;;;;;7.03;3.90;;;;;;;10.58;59.14;99232.72;8350352;28;20228;-62
2022/02/08 19:23:49;;;;;;;10.23;3.10;;;;;;;10.41;59.41;99219.34;8348599;28;20223;-62
2022/02/08 19:27:54;;;;;;;6.10;3.07;;;;;;;10.39;59.31;99232.31;8348978;28;20511;-62
2022/02/08 19:32:02;;;;;;;7.37;3.23;;;;;;;10.28;59.51;99217.03;8348867;28;20421;-62
2022/02/08 19:36:06;;;;;;;6.73;2.90;;;;;;;9.90;60.75;99225.63;8347093;28;20228;-62
2022/02/08 19:40:12;;;;;;;7.40;3.17;;;;;;;10.37;59.43;99229.75;8348688;28;20547;-62
2022/02/08 19:44:16;;;;;;;6.60;3.27;;;;;;;10.37;59.36;99242.72;8348765;28;20439;-62
2022/02/08 19:48:22;;;;;;;6.50;3.40;;;;;;;10.27;59.87;99235.19;8348426;28;20408;-63
2022/02/08 19:52:29;;;;;;;5.87;3.03;;;;;;;10.36;59.15;99237.59;8348497;28;20438;-62
2022/02/08 19:56:36;;;;;;;7.20;3.23;;;;;;;10.30;59.59;99237.69;8347618;28;20236;-63
2022/02/08 20:00:43;;;;;;;6.83;3.30;;;;;;;10.35;59.36;99238.47;8345638;28;20231;-62
2022/02/08 20:04:49;;;;;;;5.60;3.00;;;;;;;10.31;59.57;99235.09;8347370;28;20438;-62
2022/02/08 20:08:52;;;;;;;5.73;3.03;;;;;;;10.31;59.59;99236.84;8347706;28;20523;-62
2022/02/08 20:12:55;;;;;;;6.93;3.50;;;;;;;10.37;59.33;99239.28;8347732;28;20228;-62
2022/02/08 20:16:59;;;;;;;6.77;3.60;;;;;;;10.20;59.79;99239.63;8347481;28;20239;-62
2022/02/08 20:21:04;;;;;;;7.13;2.83;;;;;;;10.39;59.27;99241.84;8345318;28;20232;-62
2022/02/08 20:25:09;;;;;;;5.00;3.10;;;;;;;10.20;59.49;99244.81;8347418;28;20535;-62
2022/02/08 20:29:13;;;;;;;4.30;2.60;;;;;;;10.27;59.04;99237.75;8347176;28;20231;-62
2022/02/08 20:33:16;;;;;;;6.73;2.57;;;;;;;10.37;59.12;99245.28;8347170;28;20258;-62
2022/02/08 20:37:22;;;;;;;4.17;2.53;;;;;;;10.38;58.83;99243.59;8347171;28;20571;-62
2022/02/08 20:41:25;;;;;;;3.80;2.03;;;;;;;10.39;58.68;99232.31;8345195;28;20242;-62
2022/02/08 20:45:27;;;;;;;4.27;2.40;;;;;;;10.42;59.15;99249.53;8346814;28;20535;-62
2022/02/08 20:49:30;;;;;;;5.37;2.27;;;;;;;10.41;58.80;99245.25;8347039;28;20427;-62
2022/02/08 20:53:38;;;;;;;4.40;2.17;;;;;;;10.43;58.84;99240.88;8346221;28;20535;-62
2022/02/08 20:57:43;;;;;;;4.03;2.27;;;;;;;10.41;58.76;99237.47;8344061;28;20232;-62
2022/02/08 21:01:46;;;;;;;4.97;2.40;;;;;;;10.40;58.99;99252.16;8346951;28;20228;-62
2022/02/08 21:06:01;;;;;;;9.23;2.40;;;;;;;10.44;58.53;99255.53;8346972;28;20531;-62
2022/02/08 21:10:06;;;;;;;4.63;2.40;;;;;;;10.41;58.65;99256.44;8346603;28;20544;-62
2022/02/08 21:14:12;;;;;;;4.33;2.50;;;;;;;10.47;58.50;99256.31;8346517;28;20223;-62
2022/02/08 21:18:15;;;;;;;4.93;2.40;;;;;;;10.48;58.53;99267.53;8351780;28;20535;-62
2022/02/08 21:22:19;;;;;;;4.43;3.00;;;;;;;10.45;58.58;99255.50;8353122;28;20413;-62
2022/02/08 21:26:26;;;;;;;3.37;2.23;;;;;;;10.44;58.81;99242.59;8350487;28;20228;-62
2022/02/08 21:30:53;;;;;;;3.17;1.90;;;;;;;10.42;58.67;99234.00;8352965;28;20231;-62
2022/02/08 21:48:02;;;;;;;4.10;2.10;;;;;;;10.42;58.10;99221.06;8350005;28;20255;-62
2022/02/08 21:56:23;;;;;;;7.50;2.60;;;;;;;10.35;58.90;99223.75;8341230;28;20232;-63
2022/02/08 22:00:27;;;;;;;3.53;2.30;;;;;;;10.28;59.36;99226.50;8351519;28;20250;-62
2022/02/08 22:04:31;;;;;;;5.87;2.77;;;;;;;10.43;59.29;99233.94;8352511;28;20419;-62
2022/02/08 22:08:38;;;;;;;6.07;2.77;;;;;;;10.47;58.64;99219.19;8352032;28;20304;-63
2022/02/08 22:21:40;;;;;;;5.83;2.77;;;;;;;10.44;58.50;99222.72;8308635;28;20233;-62
2022/02/08 22:25:48;;;;;;;4.80;2.50;;;;;;;10.47;58.51;99219.19;8318894;28;20228;-62
2022/02/08 22:30:01;;;;;;;5.43;2.30;;;;;;;10.49;58.81;99220.00;8318745;28;20267;-62
2022/02/08 22:34:09;;;;;;;5.17;2.40;;;;;;;10.51;58.80;99224.28;8319077;28;20229;-62
2022/02/08 22:38:17;;;;;;;3.70;2.40;;;;;;;10.47;58.45;99221.78;8319012;28;20233;-63
2022/02/08 22:42:24;;;;;;;2.80;2.30;;;;;;;10.52;58.67;99220.78;8318801;28;20251;-63
2022/02/08 22:46:28;;;;;;;5.13;2.77;;;;;;;10.56;58.51;99227.59;8318363;28;20233;-62
2022/02/08 22:50:33;;;;;;;4.97;3.10;;;;;;;10.54;58.29;99229.38;8340129;28;20238;-63
2022/02/08 22:54:36;;;;;;;5.63;3.20;;;;;;;10.56;58.53;99240.53;8350957;28;20248;-62
2022/02/08 22:58:41;;;;;;;6.40;3.27;;;;;;;10.52;58.65;99235.47;8350978;28;20238;-62
2022/02/08 23:02:44;;;;;;;6.50;3.00;;;;;;;10.49;58.72;99238.13;8350687;28;20427;-62
2022/02/08 23:06:51;;;;;;;5.33;3.13;;;;;;;10.49;58.88;99239.00;8350754;28;20569;-62
2022/02/08 23:11:06;;;;;;;3.77;3.10;;;;;;;10.48;58.97;99234.69;8350454;28;20228;-62
2022/02/08 23:15:23;;;;;;;4.03;3.03;;;;;;;10.46;58.78;99231.28;8350250;28;20425;-62
2022/02/08 23:36:57;;;;;;;6.13;2.70;;;;;;;10.44;59.12;99237.41;8349252;28;20228;-62
2022/02/08 23:41:01;;;;;;;3.70;2.50;;;;;;;10.46;59.08;99236.47;8349096;28;20236;-63
2022/02/08 23:45:04;;;;;;;5.17;2.30;;;;;;;10.43;59.38;99230.50;8349315;28;20239;-63
2022/02/08 23:49:20;;;;;;;3.93;2.63;;;;;;;10.45;58.82;99226.16;8349210;28;20236;-62
2022/02/08 23:53:29;;;;;;;5.10;2.50;;;;;;;9.96;60.55;99241.88;8349397;28;20236;-62
2022/02/08 23:57:36;;;;;;;3.47;2.37;;;;;;;9.97;60.65;99242.72;8348925;28;20433;-63
